West Point, Ohio
Current Conditions -  °F | °C
As of 3:10 PM on Monday 26 Jan 2015 (Local Time) from KUCP Reporting Station
Light Snow Light Snow  
Wind Chill: 15°   Ceiling: 200
Heat Index: 23°   Visibility: 1.2mi
Dew Point: 19°   Wind: 7mph
Humidity: 86%   Direction: 330°NNW
Pressure: 29.76"   Gusts: NA
Location:  40.71°N, 80.7°W
Report Text: KUCP 262010Z AUTO 33006KT 1 1/4SM -SN BR OVC002 M05/M07 A2976 RMK AO2 OVC V BKN P0000
Loading
Personal Weather Stations






























Interactive Weather Map New forecast layout! Learn more

10-Day Weather Forecast

Advertisements
Track Severe Weather on mobile